JAL569 RJTT-RJCM
Flight info
| Callsign | JAL569 |
|---|---|
| Flight time | 1h 30m |
| Altitude | 37000 |
| Route | BRUCE AGRIS Y11 YTE Y111 OZORA |
| Aircraft | B738/M-SDE2E3FGHIRWXY/LB1 |
Departure
| Time | 2026-05-09 11:46 |
|---|---|
| Airport | Tokyo Haneda International Airport (RJTT) |
Arrival
| Time | 2026-05-09 13:16 |
|---|---|
| Airport | Memanbetsu Airport (RJCM) |
| Time | Latitude | Longitude | Altitude | Speed | Heading |
|---|---|---|---|---|---|
| 2026-05-09 11:13 | 35.54728 | 139.78313 | 23 ft | 0 kts | 20° |
| 2026-05-09 11:35 | 35.54717 | 139.78308 | 23 ft | 3 kts | 25° |
| 2026-05-09 11:35 | 35.54697 | 139.78294 | 26 ft | 3 kts | 43° |
| 2026-05-09 11:36 | 35.54684 | 139.78273 | 27 ft | 3 kts | 73° |
| 2026-05-09 11:36 | 35.54682 | 139.78246 | 26 ft | 3 kts | 106° |
| 2026-05-09 11:36 | 35.54691 | 139.78221 | 27 ft | 3 kts | 130° |
| 2026-05-09 11:36 | 35.54707 | 139.78203 | 29 ft | 2 kts | 148° |
| 2026-05-09 11:37 | 35.54708 | 139.78202 | 29 ft | 0 kts | 149° |
| 2026-05-09 11:39 | 35.54705 | 139.78204 | 25 ft | 2 kts | 149° |
| 2026-05-09 11:40 | 35.54640 | 139.78252 | 25 ft | 9 kts | 149° |
| 2026-05-09 11:40 | 35.54574 | 139.78300 | 24 ft | 13 kts | 149° |
| 2026-05-09 11:40 | 35.54489 | 139.78360 | 25 ft | 15 kts | 150° |
| 2026-05-09 11:40 | 35.54389 | 139.78430 | 25 ft | 18 kts | 150° |
| 2026-05-09 11:41 | 35.54296 | 139.78529 | 25 ft | 18 kts | 97° |
| 2026-05-09 11:41 | 35.54350 | 139.78676 | 24 ft | 21 kts | 60° |
| 2026-05-09 11:41 | 35.54428 | 139.78838 | 24 ft | 22 kts | 59° |
| 2026-05-09 11:41 | 35.54506 | 139.79000 | 24 ft | 22 kts | 59° |
| 2026-05-09 11:42 | 35.54580 | 139.79158 | 27 ft | 21 kts | 60° |
| 2026-05-09 11:42 | 35.54652 | 139.79311 | 27 ft | 20 kts | 59° |
| 2026-05-09 11:42 | 35.54724 | 139.79459 | 24 ft | 20 kts | 59° |
| 2026-05-09 11:42 | 35.54792 | 139.79603 | 23 ft | 19 kts | 61° |
| 2026-05-09 11:43 | 35.54729 | 139.79721 | 22 ft | 19 kts | 150° |
| 2026-05-09 11:43 | 35.54618 | 139.79798 | 23 ft | 18 kts | 150° |
| 2026-05-09 11:43 | 35.54512 | 139.79873 | 22 ft | 17 kts | 150° |
| 2026-05-09 11:43 | 35.54409 | 139.79945 | 22 ft | 17 kts | 150° |
| 2026-05-09 11:44 | 35.54310 | 139.80015 | 22 ft | 16 kts | 149° |
| 2026-05-09 11:44 | 35.54216 | 139.80084 | 23 ft | 15 kts | 146° |
| 2026-05-09 11:44 | 35.54210 | 139.80195 | 23 ft | 15 kts | 60° |
| 2026-05-09 11:44 | 35.54277 | 139.80280 | 23 ft | 14 kts | 6° |
| 2026-05-09 11:45 | 35.54337 | 139.80250 | 25 ft | 0 kts | 329° |
| 2026-05-09 11:45 | 35.54338 | 139.80249 | 25 ft | 3 kts | 329° |
| 2026-05-09 11:45 | 35.54509 | 139.80126 | 24 ft | 61 kts | 329° |
| 2026-05-09 11:45 | 35.55059 | 139.79737 | 23 ft | 120 kts | 330° |
| 2026-05-09 11:46 | 35.55913 | 139.79120 | 93 ft | 157 kts | 326° |
| 2026-05-09 11:46 | 35.56818 | 139.78462 | 634 ft | 157 kts | 329° |
| 2026-05-09 11:46 | 35.57808 | 139.77814 | 1116 ft | 162 kts | 345° |
| 2026-05-09 11:46 | 35.58909 | 139.78005 | 1753 ft | 169 kts | 28° |
| 2026-05-09 11:47 | 35.59779 | 139.78947 | 2506 ft | 162 kts | 38° |
| 2026-05-09 11:47 | 35.60567 | 139.79883 | 3193 ft | 154 kts | 36° |
| 2026-05-09 11:47 | 35.61387 | 139.80797 | 3624 ft | 169 kts | 36° |
| 2026-05-09 11:47 | 35.62323 | 139.81835 | 3837 ft | 193 kts | 37° |
| 2026-05-09 11:48 | 35.63358 | 139.82990 | 4030 ft | 213 kts | 38° |
| 2026-05-09 11:48 | 35.64520 | 139.84245 | 4196 ft | 231 kts | 31° |
| 2026-05-09 11:48 | 35.66048 | 139.84900 | 4434 ft | 242 kts | 6° |
| 2026-05-09 11:48 | 35.67789 | 139.85263 | 4718 ft | 260 kts | 7° |
| 2026-05-09 11:49 | 35.69592 | 139.85572 | 5249 ft | 266 kts | 356° |
| 2026-05-09 11:49 | 35.71352 | 139.84961 | 5883 ft | 264 kts | 329° |
| 2026-05-09 11:49 | 35.72887 | 139.83716 | 6541 ft | 267 kts | 322° |
| 2026-05-09 11:49 | 35.74398 | 139.82365 | 7218 ft | 270 kts | 327° |
| 2026-05-09 11:50 | 35.76206 | 139.81732 | 8005 ft | 276 kts | 358° |
| 2026-05-09 11:50 | 35.78082 | 139.82212 | 8731 ft | 284 kts | 17° |
| 2026-05-09 11:50 | 35.79931 | 139.83148 | 9424 ft | 290 kts | 19° |
| 2026-05-09 11:50 | 35.81804 | 139.84144 | 10128 ft | 294 kts | 18° |
| 2026-05-09 11:51 | 35.83722 | 139.85151 | 10495 ft | 310 kts | 18° |
| 2026-05-09 11:51 | 35.85789 | 139.86214 | 10687 ft | 331 kts | 18° |
| 2026-05-09 11:51 | 35.87953 | 139.87320 | 11159 ft | 341 kts | 18° |
| 2026-05-09 11:51 | 35.90200 | 139.88200 | 11798 ft | 337 kts | 1° |
| 2026-05-09 11:52 | 35.92482 | 139.88003 | 12629 ft | 325 kts | 340° |
| 2026-05-09 11:52 | 35.94601 | 139.87090 | 13422 ft | 323 kts | 334° |
| 2026-05-09 11:52 | 35.96712 | 139.86060 | 14112 ft | 328 kts | 335° |
| 2026-05-09 11:52 | 35.98988 | 139.85518 | 14711 ft | 345 kts | 356° |
| 2026-05-09 11:53 | 36.01370 | 139.86033 | 15378 ft | 359 kts | 11° |
| 2026-05-09 11:53 | 36.03746 | 139.87093 | 16013 ft | 367 kts | 14° |
| 2026-05-09 11:53 | 36.06148 | 139.88268 | 16600 ft | 374 kts | 15° |
| 2026-05-09 11:53 | 36.08579 | 139.89466 | 17209 ft | 379 kts | 15° |
| 2026-05-09 11:54 | 36.11049 | 139.90664 | 17844 ft | 383 kts | 14° |
| 2026-05-09 11:54 | 36.13548 | 139.91852 | 18494 ft | 386 kts | 14° |
| 2026-05-09 11:54 | 36.16078 | 139.93040 | 19005 ft | 392 kts | 13° |
| 2026-05-09 11:54 | 36.18649 | 139.94240 | 19490 ft | 397 kts | 12° |
| 2026-05-09 11:55 | 36.21307 | 139.94980 | 19937 ft | 384 kts | 352° |
| 2026-05-09 11:56 | 36.34753 | 139.94458 | 22810 ft | 394 kts | 347° |
| 2026-05-09 11:56 | 36.37502 | 139.94381 | 23334 ft | 397 kts | 346° |
| 2026-05-09 11:56 | 36.40282 | 139.94300 | 23766 ft | 401 kts | 346° |
| 2026-05-09 11:57 | 36.43094 | 139.94217 | 24137 ft | 406 kts | 346° |
| 2026-05-09 11:57 | 36.45931 | 139.94134 | 24501 ft | 410 kts | 346° |
| 2026-05-09 11:57 | 36.48810 | 139.94053 | 24842 ft | 415 kts | 346° |
| 2026-05-09 11:57 | 36.51708 | 139.93979 | 25237 ft | 419 kts | 346° |
| 2026-05-09 11:58 | 36.54642 | 139.93904 | 25601 ft | 423 kts | 346° |
| 2026-05-09 11:58 | 36.57564 | 139.93836 | 25940 ft | 427 kts | 346° |
| 2026-05-09 11:58 | 36.60557 | 139.93785 | 26266 ft | 432 kts | 346° |
| 2026-05-09 11:58 | 36.63578 | 139.93749 | 26581 ft | 437 kts | 346° |
| 2026-05-09 11:59 | 36.66653 | 139.93724 | 26843 ft | 443 kts | 346° |
| 2026-05-09 11:59 | 36.69755 | 139.93706 | 27184 ft | 447 kts | 346° |
| 2026-05-09 11:59 | 36.72876 | 139.93691 | 27567 ft | 449 kts | 346° |
| 2026-05-09 11:59 | 36.76015 | 139.93693 | 27877 ft | 454 kts | 346° |
| 2026-05-09 12:00 | 36.79187 | 139.93710 | 28152 ft | 458 kts | 346° |
| 2026-05-09 12:00 | 36.82391 | 139.93743 | 28449 ft | 462 kts | 346° |
| 2026-05-09 12:00 | 36.85626 | 139.93795 | 28752 ft | 466 kts | 346° |
| 2026-05-09 12:00 | 36.88842 | 139.93861 | 29071 ft | 470 kts | 346° |
| 2026-05-09 12:01 | 36.92122 | 139.93929 | 29396 ft | 472 kts | 346° |
| 2026-05-09 12:01 | 36.95417 | 139.94001 | 29687 ft | 475 kts | 346° |
| 2026-05-09 12:01 | 36.98737 | 139.94086 | 29896 ft | 480 kts | 346° |
| 2026-05-09 12:01 | 37.02105 | 139.94175 | 30001 ft | 487 kts | 346° |
| 2026-05-09 12:02 | 37.05504 | 139.94264 | 30152 ft | 491 kts | 346° |
| 2026-05-09 12:02 | 37.08932 | 139.94353 | 30394 ft | 494 kts | 346° |
| 2026-05-09 12:02 | 37.12371 | 139.94435 | 30721 ft | 494 kts | 346° |
| 2026-05-09 12:02 | 37.15819 | 139.94518 | 31030 ft | 495 kts | 346° |
| 2026-05-09 12:03 | 37.19268 | 139.94603 | 31291 ft | 497 kts | 346° |
| 2026-05-09 12:03 | 37.22733 | 139.94692 | 31573 ft | 499 kts | 346° |
| 2026-05-09 12:03 | 37.26205 | 139.94785 | 31886 ft | 500 kts | 347° |
| 2026-05-09 12:03 | 37.29679 | 139.94852 | 32223 ft | 498 kts | 346° |
| 2026-05-09 12:04 | 37.31978 | 139.94890 | 32422 ft | 498 kts | 346° |
| 2026-05-09 12:04 | 37.35445 | 139.94944 | 32684 ft | 499 kts | 346° |
| 2026-05-09 12:04 | 37.38919 | 139.95002 | 32865 ft | 499 kts | 346° |
| 2026-05-09 12:04 | 37.42397 | 139.95071 | 33058 ft | 500 kts | 346° |
| 2026-05-09 12:05 | 37.45889 | 139.95132 | 33329 ft | 500 kts | 346° |
| 2026-05-09 12:05 | 37.49364 | 139.95176 | 33812 ft | 497 kts | 346° |
| 2026-05-09 12:05 | 37.52830 | 139.95222 | 34031 ft | 499 kts | 346° |
| 2026-05-09 12:05 | 37.56272 | 139.95265 | 34143 ft | 503 kts | 346° |
| 2026-05-09 12:06 | 37.59784 | 139.95308 | 34339 ft | 504 kts | 346° |
| 2026-05-09 12:06 | 37.63277 | 139.95353 | 34663 ft | 501 kts | 346° |
| 2026-05-09 12:06 | 37.66748 | 139.95401 | 35059 ft | 497 kts | 346° |
| 2026-05-09 12:06 | 37.70197 | 139.95454 | 35378 ft | 495 kts | 346° |
| 2026-05-09 12:07 | 37.73655 | 139.95509 | 35594 ft | 496 kts | 346° |
| 2026-05-09 12:07 | 37.77109 | 139.95562 | 35831 ft | 496 kts | 346° |
| 2026-05-09 12:07 | 37.80558 | 139.95613 | 36122 ft | 494 kts | 346° |
| 2026-05-09 12:07 | 37.83986 | 139.95646 | 36488 ft | 490 kts | 346° |
| 2026-05-09 12:08 | 37.87382 | 139.95653 | 36786 ft | 487 kts | 346° |
| 2026-05-09 12:08 | 37.90761 | 139.95647 | 37051 ft | 485 kts | 346° |
| 2026-05-09 12:08 | 37.94149 | 139.95633 | 37104 ft | 488 kts | 346° |
| 2026-05-09 12:09 | 38.00947 | 139.95579 | 37138 ft | 488 kts | 346° |
| 2026-05-09 12:09 | 38.07654 | 139.95486 | 37113 ft | 482 kts | 346° |
| 2026-05-09 12:10 | 38.21008 | 139.95273 | 37129 ft | 477 kts | 346° |
| 2026-05-09 12:11 | 38.27651 | 139.95104 | 37112 ft | 478 kts | 346° |
| 2026-05-09 12:11 | 38.34306 | 139.94903 | 37106 ft | 478 kts | 346° |
| 2026-05-09 12:12 | 38.40962 | 139.94663 | 37099 ft | 477 kts | 346° |
| 2026-05-09 12:12 | 38.47591 | 139.94332 | 37092 ft | 475 kts | 346° |
| 2026-05-09 12:13 | 38.54166 | 139.93979 | 37101 ft | 475 kts | 346° |
| 2026-05-09 12:13 | 38.60783 | 139.93592 | 37096 ft | 477 kts | 346° |
| 2026-05-09 12:14 | 38.67412 | 139.93158 | 37063 ft | 477 kts | 346° |
| 2026-05-09 12:14 | 38.74054 | 139.92704 | 37054 ft | 477 kts | 346° |
| 2026-05-09 12:15 | 38.80647 | 139.92225 | 37055 ft | 478 kts | 346° |
| 2026-05-09 12:15 | 38.87284 | 139.91698 | 37055 ft | 477 kts | 346° |
| 2026-05-09 12:16 | 38.93904 | 139.91160 | 37055 ft | 476 kts | 346° |
| 2026-05-09 12:16 | 38.99268 | 139.90711 | 37059 ft | 476 kts | 346° |
| 2026-05-09 12:17 | 39.05747 | 139.90147 | 37062 ft | 473 kts | 346° |
| 2026-05-09 12:17 | 39.12105 | 139.90046 | 37035 ft | 485 kts | 5° |
| 2026-05-09 12:17 | 39.15307 | 139.91639 | 37103 ft | 503 kts | 24° |
| 2026-05-09 12:18 | 39.18184 | 139.94281 | 37080 ft | 513 kts | 35° |
| 2026-05-09 12:18 | 39.20739 | 139.97546 | 37064 ft | 519 kts | 46° |
| 2026-05-09 12:18 | 39.22744 | 140.01439 | 37070 ft | 524 kts | 62° |
| 2026-05-09 12:19 | 39.25706 | 140.09974 | 37060 ft | 524 kts | 66° |
| 2026-05-09 12:19 | 39.28504 | 140.18653 | 37066 ft | 523 kts | 66° |
| 2026-05-09 12:20 | 39.31361 | 140.27316 | 37051 ft | 524 kts | 65° |
| 2026-05-09 12:20 | 39.34273 | 140.35946 | 37066 ft | 525 kts | 65° |
| 2026-05-09 12:21 | 39.37210 | 140.44617 | 37071 ft | 527 kts | 65° |
| 2026-05-09 12:21 | 39.40144 | 140.53319 | 37063 ft | 528 kts | 65° |
| 2026-05-09 12:22 | 39.43060 | 140.62006 | 37066 ft | 531 kts | 65° |
| 2026-05-09 12:22 | 39.45995 | 140.70784 | 37043 ft | 532 kts | 65° |
| 2026-05-09 12:23 | 39.48929 | 140.79587 | 37056 ft | 533 kts | 65° |
| 2026-05-09 12:23 | 39.51867 | 140.88425 | 37055 ft | 535 kts | 65° |
| 2026-05-09 12:24 | 39.54804 | 140.97288 | 37061 ft | 536 kts | 65° |
| 2026-05-09 12:24 | 39.57742 | 141.06183 | 37054 ft | 537 kts | 66° |
| 2026-05-09 12:25 | 39.60680 | 141.15107 | 37040 ft | 538 kts | 66° |
| 2026-05-09 12:25 | 39.63620 | 141.24065 | 37051 ft | 539 kts | 66° |
| 2026-05-09 12:26 | 39.66540 | 141.32990 | 37034 ft | 539 kts | 66° |
| 2026-05-09 12:26 | 39.69462 | 141.41953 | 37033 ft | 539 kts | 66° |
| 2026-05-09 12:27 | 39.72374 | 141.50912 | 37011 ft | 537 kts | 66° |
| 2026-05-09 12:27 | 39.75270 | 141.59849 | 37010 ft | 535 kts | 66° |
| 2026-05-09 12:28 | 39.78133 | 141.68712 | 36992 ft | 535 kts | 65° |
| 2026-05-09 12:28 | 39.81006 | 141.77637 | 36993 ft | 534 kts | 66° |
| 2026-05-09 12:29 | 39.83870 | 141.86562 | 36992 ft | 534 kts | 66° |
| 2026-05-09 12:29 | 39.86835 | 141.95417 | 36973 ft | 533 kts | 59° |
| 2026-05-09 12:30 | 39.90925 | 142.03374 | 36980 ft | 527 kts | 50° |
| 2026-05-09 12:30 | 39.97417 | 142.14954 | 36974 ft | 528 kts | 50° |
| 2026-05-09 12:31 | 40.03790 | 142.26609 | 36978 ft | 529 kts | 51° |
| 2026-05-09 12:32 | 40.08046 | 142.34482 | 36977 ft | 530 kts | 51° |
| 2026-05-09 12:32 | 40.12305 | 142.42377 | 36977 ft | 531 kts | 51° |
| 2026-05-09 12:33 | 40.16569 | 142.50290 | 36997 ft | 532 kts | 51° |
| 2026-05-09 12:33 | 40.20831 | 142.58219 | 36977 ft | 533 kts | 51° |
| 2026-05-09 12:34 | 40.24897 | 142.65801 | 36974 ft | 533 kts | 51° |
| 2026-05-09 12:34 | 40.29148 | 142.73750 | 36962 ft | 532 kts | 51° |
| 2026-05-09 12:35 | 40.33386 | 142.81694 | 36969 ft | 531 kts | 51° |
| 2026-05-09 12:35 | 40.37605 | 142.89623 | 36963 ft | 529 kts | 51° |
| 2026-05-09 12:36 | 40.41814 | 142.97552 | 36956 ft | 528 kts | 51° |
| 2026-05-09 12:36 | 40.45999 | 143.05455 | 36955 ft | 527 kts | 51° |
| 2026-05-09 12:37 | 40.50144 | 143.13306 | 36951 ft | 526 kts | 51° |
| 2026-05-09 12:37 | 40.54308 | 143.21207 | 36950 ft | 525 kts | 51° |
| 2026-05-09 12:37 | 40.56551 | 143.24980 | 36930 ft | 519 kts | 40° |
| 2026-05-09 12:38 | 40.59262 | 143.28035 | 36951 ft | 507 kts | 27° |
| 2026-05-09 12:38 | 40.65485 | 143.31982 | 36938 ft | 490 kts | 7° |
| 2026-05-09 12:39 | 40.72047 | 143.34405 | 36943 ft | 495 kts | 7° |
| 2026-05-09 12:39 | 40.78686 | 143.36877 | 36927 ft | 496 kts | 7° |
| 2026-05-09 12:40 | 40.85326 | 143.39430 | 36914 ft | 497 kts | 8° |
| 2026-05-09 12:40 | 40.91946 | 143.42014 | 36909 ft | 496 kts | 8° |
| 2026-05-09 12:41 | 40.98559 | 143.44603 | 36919 ft | 494 kts | 8° |
| 2026-05-09 12:41 | 41.05139 | 143.47179 | 36912 ft | 492 kts | 8° |
| 2026-05-09 12:42 | 41.11706 | 143.49753 | 36910 ft | 491 kts | 8° |
| 2026-05-09 12:42 | 41.18242 | 143.52320 | 36919 ft | 489 kts | 8° |
| 2026-05-09 12:43 | 41.24729 | 143.54872 | 36902 ft | 488 kts | 8° |
| 2026-05-09 12:43 | 41.31256 | 143.57446 | 36898 ft | 488 kts | 8° |
| 2026-05-09 12:44 | 41.37756 | 143.60014 | 36896 ft | 487 kts | 8° |
| 2026-05-09 12:44 | 41.44259 | 143.62589 | 36888 ft | 488 kts | 9° |
| 2026-05-09 12:45 | 41.50767 | 143.65172 | 36892 ft | 487 kts | 9° |
| 2026-05-09 12:45 | 41.57267 | 143.67758 | 36884 ft | 487 kts | 9° |
| 2026-05-09 12:46 | 41.63504 | 143.70244 | 36908 ft | 487 kts | 9° |
| 2026-05-09 12:46 | 41.70001 | 143.72838 | 36884 ft | 487 kts | 9° |
| 2026-05-09 12:47 | 41.76512 | 143.75443 | 36460 ft | 493 kts | 9° |
| 2026-05-09 12:47 | 41.79804 | 143.76762 | 35938 ft | 491 kts | 9° |
| 2026-05-09 12:47 | 41.83086 | 143.78082 | 35349 ft | 491 kts | 10° |
| 2026-05-09 12:47 | 41.86344 | 143.79395 | 34925 ft | 487 kts | 10° |
| 2026-05-09 12:48 | 41.89580 | 143.80701 | 34484 ft | 484 kts | 10° |
| 2026-05-09 12:48 | 41.92748 | 143.81980 | 34043 ft | 480 kts | 10° |
| 2026-05-09 12:48 | 41.95938 | 143.83267 | 33540 ft | 477 kts | 10° |
| 2026-05-09 12:48 | 41.99117 | 143.84552 | 33061 ft | 472 kts | 10° |
| 2026-05-09 12:49 | 42.02253 | 143.85820 | 32618 ft | 467 kts | 10° |
| 2026-05-09 12:49 | 42.05349 | 143.87073 | 32183 ft | 462 kts | 10° |
| 2026-05-09 12:49 | 42.08414 | 143.88315 | 31766 ft | 457 kts | 11° |
| 2026-05-09 12:49 | 42.11443 | 143.89542 | 31350 ft | 452 kts | 11° |
| 2026-05-09 12:50 | 42.14442 | 143.90759 | 30954 ft | 447 kts | 11° |
| 2026-05-09 12:50 | 42.17410 | 143.91964 | 30545 ft | 443 kts | 11° |
| 2026-05-09 12:50 | 42.20345 | 143.93157 | 30144 ft | 438 kts | 11° |
| 2026-05-09 12:50 | 42.22271 | 143.93940 | 29869 ft | 435 kts | 11° |
| 2026-05-09 12:51 | 42.25148 | 143.95111 | 29391 ft | 429 kts | 11° |
| 2026-05-09 12:51 | 42.28904 | 143.96643 | 28855 ft | 421 kts | 11° |
| 2026-05-09 12:51 | 42.30790 | 143.97413 | 28592 ft | 417 kts | 12° |
| 2026-05-09 12:51 | 42.33520 | 143.98519 | 28261 ft | 409 kts | 11° |
| 2026-05-09 12:52 | 42.36219 | 143.99598 | 27970 ft | 401 kts | 11° |
| 2026-05-09 12:52 | 42.38869 | 144.00653 | 27696 ft | 393 kts | 12° |
| 2026-05-09 12:52 | 42.41472 | 144.01689 | 27419 ft | 387 kts | 12° |
| 2026-05-09 12:52 | 42.44034 | 144.02710 | 27144 ft | 381 kts | 12° |
| 2026-05-09 12:53 | 42.46561 | 144.03719 | 26876 ft | 376 kts | 12° |
| 2026-05-09 12:53 | 42.49057 | 144.04716 | 26544 ft | 372 kts | 12° |
| 2026-05-09 12:53 | 42.51527 | 144.05706 | 26160 ft | 369 kts | 12° |
| 2026-05-09 12:53 | 42.53981 | 144.06690 | 25789 ft | 366 kts | 12° |
| 2026-05-09 12:54 | 42.56407 | 144.07607 | 25443 ft | 362 kts | 9° |
| 2026-05-09 12:54 | 42.58821 | 144.08320 | 25139 ft | 356 kts | 7° |
| 2026-05-09 12:54 | 42.61248 | 144.08961 | 24775 ft | 354 kts | 7° |
| 2026-05-09 12:54 | 42.63661 | 144.09586 | 24414 ft | 352 kts | 7° |
| 2026-05-09 12:55 | 42.66059 | 144.10216 | 24049 ft | 350 kts | 7° |
| 2026-05-09 12:55 | 42.68444 | 144.10855 | 23695 ft | 348 kts | 7° |
| 2026-05-09 12:55 | 42.70816 | 144.11498 | 23317 ft | 346 kts | 7° |
| 2026-05-09 12:55 | 42.73177 | 144.12144 | 22892 ft | 344 kts | 7° |
| 2026-05-09 12:56 | 42.75518 | 144.12788 | 22522 ft | 341 kts | 7° |
| 2026-05-09 12:56 | 42.77838 | 144.13426 | 22180 ft | 338 kts | 7° |
| 2026-05-09 12:56 | 42.80138 | 144.14060 | 21804 ft | 336 kts | 7° |
| 2026-05-09 12:56 | 42.82418 | 144.14687 | 21457 ft | 333 kts | 7° |
| 2026-05-09 12:57 | 42.84666 | 144.15275 | 21237 ft | 326 kts | 6° |
| 2026-05-09 12:57 | 42.86895 | 144.15840 | 20899 ft | 325 kts | 6° |
| 2026-05-09 12:57 | 42.89119 | 144.16401 | 20503 ft | 325 kts | 6° |
| 2026-05-09 12:57 | 42.91328 | 144.16959 | 20162 ft | 330 kts | 6° |
| 2026-05-09 12:58 | 42.93606 | 144.17537 | 19805 ft | 335 kts | 7° |
| 2026-05-09 12:58 | 42.95901 | 144.18123 | 19438 ft | 335 kts | 7° |
| 2026-05-09 12:58 | 42.98186 | 144.18710 | 19079 ft | 333 kts | 7° |
| 2026-05-09 12:58 | 43.00453 | 144.19292 | 18727 ft | 331 kts | 7° |
| 2026-05-09 12:59 | 43.02711 | 144.19869 | 18382 ft | 329 kts | 6° |
| 2026-05-09 12:59 | 43.04969 | 144.20193 | 18064 ft | 323 kts | 357° |
| 2026-05-09 12:59 | 43.07208 | 144.20197 | 17697 ft | 320 kts | 356° |
| 2026-05-09 12:59 | 43.09427 | 144.20154 | 17352 ft | 318 kts | 355° |
| 2026-05-09 13:00 | 43.11616 | 144.20110 | 17170 ft | 309 kts | 355° |
| 2026-05-09 13:00 | 43.13726 | 144.20075 | 16891 ft | 305 kts | 356° |
| 2026-05-09 13:00 | 43.15845 | 144.20045 | 16569 ft | 303 kts | 356° |
| 2026-05-09 13:00 | 43.17944 | 144.20020 | 16265 ft | 300 kts | 356° |
| 2026-05-09 13:01 | 43.20026 | 144.20000 | 15936 ft | 298 kts | 356° |
| 2026-05-09 13:01 | 43.22111 | 144.19982 | 15410 ft | 303 kts | 358° |
| 2026-05-09 13:01 | 43.24233 | 144.19965 | 14981 ft | 305 kts | 358° |
| 2026-05-09 13:01 | 43.26334 | 144.19950 | 14864 ft | 296 kts | 358° |
| 2026-05-09 13:02 | 43.28337 | 144.19939 | 14736 ft | 282 kts | 357° |
| 2026-05-09 13:02 | 43.30253 | 144.19928 | 14601 ft | 268 kts | 357° |
| 2026-05-09 13:02 | 43.32120 | 144.19915 | 14152 ft | 268 kts | 358° |
| 2026-05-09 13:02 | 43.34003 | 144.19900 | 13654 ft | 270 kts | 358° |
| 2026-05-09 13:03 | 43.35879 | 144.19887 | 13172 ft | 268 kts | 358° |
| 2026-05-09 13:03 | 43.37697 | 144.19874 | 12807 ft | 263 kts | 358° |
| 2026-05-09 13:03 | 43.39519 | 144.19862 | 12335 ft | 260 kts | 358° |
| 2026-05-09 13:03 | 43.41329 | 144.19850 | 11876 ft | 259 kts | 358° |
| 2026-05-09 13:04 | 43.43116 | 144.19838 | 11503 ft | 254 kts | 358° |
| 2026-05-09 13:04 | 43.44876 | 144.19826 | 11084 ft | 251 kts | 358° |
| 2026-05-09 13:04 | 43.46607 | 144.19814 | 10728 ft | 247 kts | 358° |
| 2026-05-09 13:04 | 43.48311 | 144.19803 | 10357 ft | 243 kts | 358° |
| 2026-05-09 13:05 | 43.49990 | 144.19724 | 9964 ft | 240 kts | 355° |
| 2026-05-09 13:05 | 43.51644 | 144.19587 | 9550 ft | 236 kts | 355° |
| 2026-05-09 13:05 | 43.53281 | 144.19446 | 9111 ft | 234 kts | 355° |
| 2026-05-09 13:05 | 43.54871 | 144.19313 | 8800 ft | 228 kts | 355° |
| 2026-05-09 13:06 | 43.56414 | 144.19188 | 8596 ft | 218 kts | 356° |
| 2026-05-09 13:06 | 43.57909 | 144.19069 | 8297 ft | 212 kts | 356° |
| 2026-05-09 13:06 | 43.59349 | 144.18955 | 8061 ft | 203 kts | 356° |
| 2026-05-09 13:06 | 43.60738 | 144.18845 | 7744 ft | 199 kts | 356° |
| 2026-05-09 13:07 | 43.62195 | 144.18727 | 6940 ft | 218 kts | 355° |
| 2026-05-09 13:07 | 43.63755 | 144.18596 | 6199 ft | 231 kts | 355° |
| 2026-05-09 13:07 | 43.65367 | 144.18458 | 5793 ft | 229 kts | 355° |
| 2026-05-09 13:07 | 43.66913 | 144.18494 | 5635 ft | 219 kts | 11° |
| 2026-05-09 13:08 | 43.68225 | 144.19550 | 5349 ft | 225 kts | 41° |
| 2026-05-09 13:08 | 43.68935 | 144.21524 | 5027 ft | 240 kts | 72° |
| 2026-05-09 13:08 | 43.68776 | 144.23842 | 4806 ft | 251 kts | 105° |
| 2026-05-09 13:08 | 43.67761 | 144.25805 | 4585 ft | 256 kts | 138° |
| 2026-05-09 13:09 | 43.66177 | 144.26818 | 4404 ft | 250 kts | 173° |
| 2026-05-09 13:09 | 43.64546 | 144.26583 | 4248 ft | 225 kts | 214° |
| 2026-05-09 13:09 | 43.63545 | 144.25215 | 4068 ft | 190 kts | 259° |
| 2026-05-09 13:09 | 43.63540 | 144.23598 | 3670 ft | 164 kts | 302° |
| 2026-05-09 13:10 | 43.64100 | 144.22334 | 3645 ft | 151 kts | 313° |
| 2026-05-09 13:10 | 43.64826 | 144.21276 | 3582 ft | 150 kts | 323° |
| 2026-05-09 13:10 | 43.65669 | 144.20438 | 3572 ft | 149 kts | 330° |
| 2026-05-09 13:10 | 43.66596 | 144.19778 | 3572 ft | 151 kts | 336° |
| 2026-05-09 13:11 | 43.67585 | 144.19247 | 3567 ft | 153 kts | 338° |
| 2026-05-09 13:11 | 43.68587 | 144.18768 | 3554 ft | 151 kts | 343° |
| 2026-05-09 13:11 | 43.69600 | 144.18454 | 3549 ft | 151 kts | 347° |
| 2026-05-09 13:11 | 43.70644 | 144.18180 | 3462 ft | 157 kts | 347° |
| 2026-05-09 13:12 | 43.71738 | 144.17960 | 3267 ft | 160 kts | 350° |
| 2026-05-09 13:12 | 43.72830 | 144.17822 | 3056 ft | 155 kts | 351° |
| 2026-05-09 13:12 | 43.73882 | 144.17719 | 2840 ft | 149 kts | 351° |
| 2026-05-09 13:12 | 43.74895 | 144.17628 | 2634 ft | 143 kts | 351° |
| 2026-05-09 13:13 | 43.75860 | 144.17544 | 2477 ft | 132 kts | 352° |
| 2026-05-09 13:13 | 43.76756 | 144.17467 | 2275 ft | 128 kts | 349° |
| 2026-05-09 13:13 | 43.77656 | 144.17387 | 2085 ft | 130 kts | 349° |
| 2026-05-09 13:13 | 43.78567 | 144.17306 | 1903 ft | 132 kts | 350° |
| 2026-05-09 13:14 | 43.79492 | 144.17226 | 1707 ft | 133 kts | 349° |
| 2026-05-09 13:14 | 43.80414 | 144.17145 | 1516 ft | 133 kts | 350° |
| 2026-05-09 13:16 | 43.87291 | 144.16502 | 144 ft | 138 kts | 353° |
| 2026-05-09 13:16 | 43.88123 | 144.16390 | 115 ft | 92 kts | 354° |
| 2026-05-09 13:16 | 43.88535 | 144.16337 | 114 ft | 25 kts | 355° |
| 2026-05-09 13:16 | 43.88702 | 144.16307 | 114 ft | 24 kts | 331° |
| 2026-05-09 13:17 | 43.88720 | 144.16156 | 114 ft | 14 kts | 263° |
| 2026-05-09 13:17 | 43.88645 | 144.16093 | 112 ft | 14 kts | 178° |
| 2026-05-09 13:17 | 43.88547 | 144.16109 | 114 ft | 14 kts | 175° |
| 2026-05-09 13:17 | 43.88449 | 144.16119 | 114 ft | 14 kts | 175° |
| 2026-05-09 13:18 | 43.88385 | 144.16126 | 113 ft | 9 kts | 175° |
| 2026-05-09 13:18 | 43.88324 | 144.16133 | 118 ft | 10 kts | 174° |
| 2026-05-09 13:18 | 43.88245 | 144.16144 | 116 ft | 13 kts | 174° |
| 2026-05-09 13:18 | 43.88219 | 144.16092 | 118 ft | 8 kts | 269° |
| 2026-05-09 13:19 | 43.88215 | 144.16016 | 116 ft | 8 kts | 268° |
| 2026-05-09 13:19 | 43.88214 | 144.15997 | 118 ft | 2 kts | 265° |
| 2026-05-09 13:19 | 43.88213 | 144.15976 | 118 ft | 1 kts | 265° |
| 2026-05-09 13:19 | 43.88213 | 144.15972 | 119 ft | 0 kts | 265° |